createdAt,value
2018-12-04T00:02:28.264Z,99898.80
2018-12-04T00:04:56.626Z,99899.33
2018-12-04T00:07:24.998Z,99911.84
2018-12-04T00:09:53.330Z,99909.56
2018-12-04T00:12:21.598Z,99914.89
2018-12-04T00:14:49.941Z,99926.84
2018-12-04T00:17:18.269Z,99934.45
2018-12-04T00:19:46.773Z,99946.16
2018-12-04T00:22:15.253Z,99942.28
2018-12-04T00:24:43.574Z,99946.86
2018-12-04T00:27:11.883Z,99951.72
2018-12-04T00:29:40.233Z,99954.55
2018-12-04T00:32:08.529Z,99961.75
2018-12-04T00:34:36.806Z,99965.20
2018-12-04T00:37:05.096Z,99972.80
2018-12-04T00:39:33.363Z,99983.23
2018-12-04T00:42:01.650Z,99988.72
2018-12-04T00:44:30.171Z,99993.00
2018-12-04T00:46:58.501Z,99995.89
2018-12-04T00:49:26.783Z,100004.64
2018-12-04T00:51:55.113Z,100009.67
2018-12-04T00:54:23.415Z,100016.44
2018-12-04T00:56:51.805Z,100018.84
2018-12-04T00:59:20.223Z,100030.23
2018-12-04T01:01:48.524Z,100034.62
2018-12-04T01:04:16.837Z,100047.13
2018-12-04T01:06:45.247Z,100050.31
2018-12-04T01:09:13.517Z,100060.73
2018-12-04T01:11:41.825Z,100055.06
2018-12-04T01:14:10.146Z,100056.74
2018-12-04T01:16:38.432Z,100071.01
2018-12-04T01:19:07.403Z,100078.05
2018-12-04T01:21:35.801Z,100086.77
2018-12-04T01:24:04.238Z,100093.51
2018-12-04T01:26:32.548Z,100104.03
2018-12-04T01:29:01.350Z,100098.66
2018-12-04T01:31:29.680Z,100105.91
2018-12-04T01:33:58.106Z,100104.73
2018-12-04T01:36:26.461Z,100117.94
2018-12-04T01:38:54.891Z,100118.25
2018-12-04T01:41:23.220Z,100126.36
2018-12-04T01:43:51.605Z,100131.94
2018-12-04T01:46:20.403Z,100135.66
2018-12-04T01:48:48.691Z,100138.22
2018-12-04T01:51:17.491Z,100145.46
2018-12-04T01:53:45.785Z,100155.14
2018-12-04T01:56:14.206Z,100163.41
2018-12-04T01:58:42.514Z,100168.97
2018-12-04T02:01:10.817Z,100173.70
2018-12-04T02:03:39.089Z,100172.02
2018-12-04T02:06:07.501Z,100173.00
2018-12-04T02:08:36.714Z,100186.37
2018-12-04T02:11:05.022Z,100192.30
2018-12-04T02:13:33.817Z,100192.63
2018-12-04T02:16:02.126Z,100209.20
2018-12-04T02:18:30.413Z,100215.62
2018-12-04T02:20:58.738Z,100217.64
2018-12-04T02:23:27.186Z,100221.37
2018-12-04T02:25:55.522Z,100226.27
2018-12-04T02:28:26.323Z,100234.55
2018-12-04T02:30:54.605Z,100240.45
2018-12-04T02:33:22.893Z,100248.05
2018-12-04T02:35:51.422Z,100252.79
2018-12-04T02:38:19.708Z,100256.49
2018-12-04T02:40:48.016Z,100270.17
2018-12-04T02:43:16.340Z,100285.89
2018-12-04T02:45:44.757Z,100286.06
2018-12-04T02:48:13.028Z,100289.27
2018-12-04T02:50:41.388Z,100290.63
2018-12-04T02:53:09.661Z,100300.59
2018-12-04T02:55:38.041Z,100315.62
2018-12-04T02:58:06.407Z,100324.75
2018-12-04T03:00:34.725Z,100323.05
2018-12-04T03:03:03.037Z,100330.78
2018-12-04T03:05:31.375Z,100336.03
2018-12-04T03:07:59.659Z,100343.94
2018-12-04T03:10:27.991Z,100358.78
2018-12-04T03:12:56.299Z,100348.36
2018-12-04T03:15:24.603Z,100359.88
2018-12-04T03:17:52.918Z,100361.73
2018-12-04T03:20:21.304Z,100371.00
2018-12-04T03:22:49.610Z,100376.17
2018-12-04T03:25:17.941Z,100386.65
2018-12-04T03:27:46.264Z,100384.12
2018-12-04T03:30:14.617Z,100397.77
2018-12-04T03:32:43.026Z,100403.78
2018-12-04T03:35:11.475Z,100409.58
2018-12-04T03:37:39.799Z,100410.16
2018-12-04T03:40:09.141Z,100410.78
2018-12-04T03:42:37.731Z,100414.95
2018-12-04T03:45:06.252Z,100421.17
2018-12-04T03:47:34.620Z,100428.79
2018-12-04T03:50:02.997Z,100437.70
2018-12-04T03:52:31.263Z,100441.75
2018-12-04T03:54:59.550Z,100446.98
2018-12-04T03:57:28.109Z,100453.64
2018-12-04T03:59:56.392Z,100464.06
2018-12-04T04:02:24.662Z,100470.73
2018-12-04T04:04:53.081Z,100480.02
2018-12-04T04:07:21.390Z,100501.05
2018-12-04T04:09:49.673Z,100489.39
2018-12-04T04:12:17.968Z,100498.15
2018-12-04T04:14:46.267Z,100496.15
2018-12-04T04:17:14.545Z,100513.91
2018-12-04T04:19:42.961Z,100515.03
2018-12-04T04:22:11.235Z,100522.20
2018-12-04T04:24:39.567Z,100526.09
2018-12-04T04:27:08.018Z,100532.66
2018-12-04T04:29:36.429Z,100534.01
2018-12-04T04:32:04.747Z,100538.27
2018-12-04T04:34:33.049Z,100543.62
2018-12-04T04:37:01.470Z,100549.73
2018-12-04T04:39:29.889Z,100551.09
2018-12-04T04:41:58.281Z,100553.73
2018-12-04T04:44:26.643Z,100563.70
2018-12-04T04:46:54.933Z,100558.97
2018-12-04T04:49:23.483Z,100563.36
2018-12-04T04:51:51.782Z,100567.13
2018-12-04T04:54:20.160Z,100566.34
2018-12-04T04:56:48.530Z,100565.31
2018-12-04T04:59:17.021Z,100580.34
2018-12-04T05:01:45.416Z,100582.63
2018-12-04T05:04:13.979Z,100597.45
2018-12-04T05:06:42.375Z,100598.67
2018-12-04T05:09:10.776Z,100604.12
2018-12-04T05:11:39.541Z,100606.78
2018-12-04T05:14:08.008Z,100613.09
2018-12-04T05:16:36.432Z,100620.00
2018-12-04T05:19:04.733Z,100631.41
2018-12-04T05:21:33.162Z,100625.09
2018-12-04T05:24:01.641Z,100635.91
2018-12-04T05:26:30.022Z,100645.32
2018-12-04T05:28:58.315Z,100644.43
2018-12-04T05:31:26.658Z,100644.52
2018-12-04T05:33:55.267Z,100649.26
2018-12-04T05:36:23.559Z,100651.43
2018-12-04T05:38:52.178Z,100659.70
2018-12-04T05:41:20.611Z,100659.01
2018-12-04T05:43:48.903Z,100662.34
2018-12-04T05:46:17.259Z,100668.55
2018-12-04T05:48:45.577Z,100674.20
2018-12-04T05:51:13.917Z,100677.29
2018-12-04T05:53:42.263Z,100685.20
2018-12-04T05:56:10.891Z,100692.16
2018-12-04T05:58:39.262Z,100699.20
2018-12-04T06:01:07.625Z,100711.14
2018-12-04T06:03:36.055Z,100714.38
2018-12-04T06:06:04.510Z,100718.08
2018-12-04T06:08:32.866Z,100723.77
2018-12-04T06:11:01.184Z,100740.91
2018-12-04T06:13:29.583Z,100747.70
2018-12-04T06:15:58.033Z,100755.35
2018-12-04T06:18:26.606Z,100750.78
2018-12-04T06:20:54.985Z,100756.80
2018-12-04T06:23:23.285Z,100759.59
2018-12-04T06:25:51.817Z,100764.45
2018-12-04T06:28:20.159Z,100762.07
2018-12-04T06:30:48.461Z,100767.81
2018-12-04T06:33:16.948Z,100777.84
2018-12-04T06:35:45.302Z,100781.04
2018-12-04T06:38:13.568Z,100792.70
2018-12-04T06:40:42.092Z,100797.44
2018-12-04T06:43:10.413Z,100800.33
2018-12-04T06:45:38.761Z,100811.48
2018-12-04T06:48:07.222Z,100824.55
2018-12-04T06:50:35.531Z,100839.24
2018-12-04T06:53:03.810Z,100850.16
2018-12-04T06:55:32.164Z,100853.35
2018-12-04T06:58:00.570Z,100861.23
2018-12-04T07:00:28.911Z,100871.66
2018-12-04T07:02:57.268Z,100876.27
2018-12-04T07:05:25.561Z,100884.98
2018-12-04T07:07:53.953Z,100887.19
2018-12-04T07:10:22.318Z,100892.01
2018-12-04T07:12:50.721Z,100895.70
2018-12-04T07:15:19.052Z,100903.70
2018-12-04T07:17:47.417Z,100913.29
2018-12-04T07:20:15.733Z,100924.07
2018-12-04T07:22:44.145Z,100922.09
2018-12-04T07:25:12.685Z,100929.39
2018-12-04T07:27:40.961Z,100940.88
2018-12-04T07:30:09.468Z,100950.32
2018-12-04T07:32:38.855Z,100949.95
2018-12-04T07:35:07.678Z,100957.77
2018-12-04T07:37:35.959Z,100968.95
2018-12-04T07:40:05.260Z,100979.23
2018-12-04T07:42:33.714Z,100993.70
2018-12-04T07:45:02.034Z,100996.77
2018-12-04T07:47:30.591Z,101006.10
2018-12-04T07:49:58.893Z,101006.57
2018-12-04T07:52:27.424Z,101002.45
2018-12-04T07:54:55.777Z,101013.83
2018-12-04T07:57:24.074Z,101021.67
2018-12-04T07:59:52.378Z,101027.86
2018-12-04T08:02:20.717Z,101026.50
2018-12-04T08:04:49.173Z,101040.64
2018-12-04T08:07:17.482Z,101051.14
2018-12-04T08:09:46.091Z,101050.44
2018-12-04T08:12:14.501Z,101061.06
2018-12-04T08:14:42.914Z,101061.95
2018-12-04T08:17:11.243Z,101065.72
2018-12-04T08:19:39.536Z,101063.06
2018-12-04T08:22:07.976Z,101073.45
2018-12-04T08:24:36.341Z,101078.39
2018-12-04T08:27:04.732Z,101085.16
2018-12-04T08:29:33.053Z,101090.03
2018-12-04T08:32:01.790Z,101099.38
2018-12-04T08:34:30.102Z,101105.34
2018-12-04T08:36:58.404Z,101105.58
2018-12-04T08:39:26.722Z,101103.19
2018-12-04T08:41:55.012Z,101109.11
2018-12-04T08:44:23.316Z,101112.91
2018-12-04T08:46:51.669Z,101109.55
2018-12-04T08:49:20.248Z,101115.25
2018-12-04T08:51:48.538Z,101118.91
2018-12-04T08:54:17.053Z,101130.27
2018-12-04T08:56:45.340Z,101137.51
2018-12-04T08:59:13.716Z,101143.27
2018-12-04T09:01:42.086Z,101162.68
2018-12-04T09:04:10.512Z,101164.56
2018-12-04T09:06:38.834Z,101184.97
2018-12-04T09:09:09.433Z,101182.24
2018-12-04T09:11:37.757Z,101200.67
2018-12-04T09:14:06.049Z,101192.77
2018-12-04T09:16:34.863Z,101180.39
2018-12-04T09:19:03.250Z,101185.77
2018-12-04T09:21:31.660Z,101187.84
2018-12-04T09:24:00.121Z,101200.63
2018-12-04T09:26:28.582Z,101205.76
2018-12-04T09:28:57.219Z,101198.57
2018-12-04T09:31:25.767Z,101208.64
2018-12-04T09:33:54.125Z,101204.13
2018-12-04T09:36:22.434Z,101207.76
2018-12-04T09:38:51.183Z,101217.39
2018-12-04T09:41:19.598Z,101223.94
2018-12-04T09:43:47.959Z,101233.32
2018-12-04T09:46:16.305Z,101237.58
2018-12-04T09:48:44.613Z,101239.61
2018-12-04T09:51:12.943Z,101236.75
2018-12-04T09:53:41.257Z,101235.70
2018-12-04T09:56:09.571Z,101238.03
2018-12-04T09:58:37.878Z,101236.70
2018-12-04T10:01:06.725Z,101238.22
2018-12-04T10:03:35.038Z,101254.69
2018-12-04T10:06:03.317Z,101264.21
2018-12-04T10:08:31.807Z,101268.81
2018-12-04T10:11:00.191Z,101282.78
2018-12-04T10:13:28.519Z,101282.74
2018-12-04T10:15:56.828Z,101286.20
2018-12-04T10:18:25.214Z,101287.87
2018-12-04T10:20:53.590Z,101290.98
2018-12-04T10:23:21.979Z,101302.94
2018-12-04T10:25:50.770Z,101308.09
2018-12-04T10:28:19.202Z,101314.72
2018-12-04T10:30:52.966Z,101323.20
2018-12-04T10:33:21.261Z,101318.27
2018-12-04T10:35:49.667Z,101317.09
2018-12-04T10:38:18.004Z,101317.56
2018-12-04T10:40:46.321Z,101325.73
2018-12-04T10:43:14.684Z,101328.05
2018-12-04T10:45:43.048Z,101319.34
2018-12-04T10:48:11.389Z,101319.59
2018-12-04T10:50:39.685Z,101325.42
2018-12-04T10:53:08.016Z,101329.08
2018-12-04T10:55:36.390Z,101339.34
2018-12-04T10:58:04.807Z,101330.22
2018-12-04T11:00:35.947Z,101332.66
2018-12-04T11:03:09.749Z,101350.26
2018-12-04T11:05:38.434Z,101345.27
2018-12-04T11:08:06.734Z,101339.44
2018-12-04T11:10:35.092Z,101352.48
2018-12-04T11:13:04.003Z,101351.56
2018-12-04T11:15:32.345Z,101363.22
2018-12-04T11:18:00.641Z,101375.96
2018-12-04T11:20:28.969Z,101376.27
2018-12-04T11:22:57.276Z,101380.73
2018-12-04T11:25:25.586Z,101391.30
2018-12-04T11:27:53.980Z,101388.64
2018-12-04T11:30:22.458Z,101386.68
2018-12-04T11:32:50.765Z,101394.46
2018-12-04T11:35:19.118Z,101400.28
2018-12-04T11:37:47.441Z,101399.61
2018-12-04T11:40:15.758Z,101396.66
2018-12-04T11:42:44.120Z,101399.37
2018-12-04T11:45:12.487Z,101407.56
2018-12-04T11:47:40.818Z,101410.38
2018-12-04T11:50:09.426Z,101428.16
2018-12-04T11:52:37.707Z,101463.33
2018-12-04T11:55:06.299Z,101547.50
2018-12-04T11:57:34.717Z,101548.52
2018-12-04T12:00:03.474Z,101533.95
2018-12-04T12:02:32.014Z,101490.32
2018-12-04T12:05:00.336Z,101484.55
2018-12-04T12:07:28.627Z,101492.32
2018-12-04T12:09:56.911Z,101502.08
2018-12-04T12:12:25.593Z,101504.17
2018-12-04T12:14:53.940Z,101504.63
2018-12-04T12:17:22.555Z,101508.70
2018-12-04T12:19:51.111Z,101510.23
2018-12-04T12:22:19.425Z,101504.41
2018-12-04T12:24:47.731Z,101506.50
2018-12-04T12:27:16.228Z,101506.45
2018-12-04T12:29:44.515Z,101510.45
2018-12-04T12:32:12.826Z,101514.11
2018-12-04T12:34:41.819Z,101516.11
2018-12-04T12:37:10.169Z,101517.22
2018-12-04T12:39:38.469Z,101522.96
2018-12-04T12:42:06.830Z,101525.16
2018-12-04T12:44:35.191Z,101528.26
2018-12-04T12:47:03.547Z,101526.67
2018-12-04T12:49:31.850Z,101547.46
2018-12-04T12:52:00.227Z,101549.78
2018-12-04T12:54:28.660Z,101543.30
2018-12-04T12:56:57.053Z,101542.71
2018-12-04T12:59:25.389Z,101557.89
2018-12-04T13:01:53.666Z,101558.99
2018-12-04T13:04:21.989Z,101553.05
2018-12-04T13:06:50.293Z,101568.97
2018-12-04T13:09:18.564Z,101570.23
2018-12-04T13:11:46.878Z,101577.50
2018-12-04T13:14:15.194Z,101570.08
2018-12-04T13:16:43.521Z,101580.22
2018-12-04T13:19:12.025Z,101584.36
2018-12-04T13:21:41.046Z,101587.84
2018-12-04T13:24:09.730Z,101584.33
2018-12-04T13:26:38.059Z,101592.81
2018-12-04T13:29:06.426Z,101593.66
2018-12-04T13:31:34.720Z,101601.34
2018-12-04T13:34:03.110Z,101604.36
2018-12-04T13:36:31.418Z,101608.95
2018-12-04T13:38:59.861Z,101606.70
2018-12-04T13:41:28.288Z,101609.09
2018-12-04T13:43:56.629Z,101614.32
2018-12-04T13:46:24.943Z,101633.46
2018-12-04T13:48:53.280Z,101632.84
2018-12-04T13:51:21.626Z,101635.34
2018-12-04T13:53:50.041Z,101637.67
2018-12-04T13:56:18.507Z,101645.33
2018-12-04T13:58:48.968Z,101647.81
2018-12-04T14:01:17.184Z,101653.95
2018-12-04T14:03:46.086Z,101659.39
2018-12-04T14:06:14.593Z,101665.12
2018-12-04T14:08:42.926Z,101671.74
2018-12-04T14:11:11.318Z,101673.94
2018-12-04T14:13:39.625Z,101674.73
2018-12-04T14:16:08.007Z,101682.63
2018-12-04T14:18:36.356Z,101686.80
2018-12-04T14:21:04.722Z,101699.30
2018-12-04T14:23:33.170Z,101699.22
2018-12-04T14:26:02.494Z,101704.20
2018-12-04T14:28:30.804Z,101708.39
2018-12-04T14:30:59.171Z,101721.08
2018-12-04T14:33:27.584Z,101727.63
2018-12-04T14:35:56.011Z,101731.94
2018-12-04T14:38:24.764Z,101736.09
2018-12-04T14:40:53.518Z,101734.52
2018-12-04T14:43:21.972Z,101733.81
2018-12-04T14:45:50.300Z,101732.97
2018-12-04T14:48:18.997Z,101731.81
2018-12-04T14:50:47.305Z,101745.98
2018-12-04T14:53:15.628Z,101755.62
2018-12-04T14:55:44.041Z,101756.19
2018-12-04T14:58:12.399Z,101754.01
2018-12-04T15:00:40.906Z,101761.72
2018-12-04T15:03:09.333Z,101760.64
2018-12-04T15:05:37.694Z,101761.99
2018-12-04T15:08:06.126Z,101772.05
2018-12-04T15:10:34.833Z,101773.08
2018-12-04T15:13:03.182Z,101770.60
2018-12-04T15:15:31.565Z,101780.20
2018-12-04T15:18:00.024Z,101784.89
2018-12-04T15:20:28.752Z,101792.64
2018-12-04T15:22:57.181Z,101800.39
2018-12-04T15:25:25.546Z,101807.84
2018-12-04T15:27:53.871Z,101809.07
2018-12-04T15:30:22.234Z,101818.09
2018-12-04T15:32:50.805Z,101831.74
2018-12-04T15:35:19.180Z,101837.49
2018-12-04T15:37:47.475Z,101836.17
2018-12-04T15:40:16.089Z,101836.09
2018-12-04T15:42:44.450Z,101842.38
2018-12-04T15:45:12.816Z,101843.47
2018-12-04T15:47:41.233Z,101845.66
2018-12-04T15:50:09.739Z,101851.32
2018-12-04T15:52:38.088Z,101852.09
2018-12-04T15:55:06.756Z,101860.20
2018-12-04T15:57:35.153Z,101867.30
2018-12-04T16:00:05.680Z,101878.61
2018-12-04T16:02:34.098Z,101883.40
2018-12-04T16:05:02.410Z,101904.02
2018-12-04T16:07:32.659Z,101926.36
2018-12-04T16:10:01.034Z,101930.73
2018-12-04T16:12:29.318Z,101933.58
2018-12-04T16:17:37.720Z,101924.09
2018-12-04T16:20:07.174Z,101919.05
2018-12-04T16:22:39.428Z,101918.23
2018-12-04T16:25:08.107Z,101918.98
2018-12-04T16:27:36.481Z,101924.86
2018-12-04T16:30:06.517Z,101927.32
2018-12-04T16:32:34.814Z,101934.92
2018-12-04T16:35:03.394Z,101938.23
2018-12-04T16:37:31.668Z,101938.00
2018-12-04T16:40:00.411Z,101935.28
2018-12-04T16:42:28.724Z,101927.06
2018-12-04T16:44:57.045Z,101940.30
2018-12-04T16:47:25.398Z,101937.36
2018-12-04T16:49:53.698Z,101940.80
2018-12-04T16:52:22.067Z,101940.40
2018-12-04T16:54:50.406Z,101943.95
2018-12-04T16:57:18.783Z,101948.94
2018-12-04T16:59:47.105Z,101946.09
2018-12-04T17:02:15.587Z,101940.89
2018-12-04T17:04:43.888Z,101940.70
2018-12-04T17:07:12.314Z,101946.42
2018-12-04T17:09:40.674Z,101953.65
2018-12-04T17:12:09.005Z,101957.19
2018-12-04T17:14:37.389Z,101962.30
2018-12-04T17:17:05.742Z,101961.18
2018-12-04T17:19:35.013Z,101965.27
2018-12-04T17:22:03.634Z,101966.72
2018-12-04T17:24:32.253Z,101965.14
2018-12-04T17:27:00.563Z,101965.56
2018-12-04T17:29:28.875Z,101963.16
2018-12-04T17:31:57.267Z,101970.13
2018-12-04T17:34:25.658Z,101972.53
2018-12-04T17:36:53.942Z,101976.58
2018-12-04T17:39:22.335Z,101981.89
2018-12-04T17:41:50.745Z,101977.92
2018-12-04T17:44:19.058Z,101984.81
2018-12-04T17:46:47.439Z,101995.66
2018-12-04T17:49:15.847Z,102005.91
2018-12-04T17:51:44.182Z,102003.44
2018-12-04T17:54:12.570Z,102009.98
2018-12-04T17:56:40.934Z,102011.59
2018-12-04T17:59:09.245Z,102011.47
2018-12-04T18:01:37.621Z,102013.23
2018-12-04T18:04:06.009Z,102010.67
2018-12-04T18:06:34.343Z,102016.63
2018-12-04T18:09:03.914Z,102017.59
2018-12-04T18:11:32.221Z,102017.36
2018-12-04T18:14:00.905Z,102022.04
2018-12-04T18:16:29.284Z,102023.12
2018-12-04T18:18:57.568Z,102028.49
2018-12-04T18:21:25.883Z,102030.01
2018-12-04T18:23:54.221Z,102031.46
2018-12-04T18:26:22.532Z,102041.16
2018-12-04T18:28:50.839Z,102035.22
2018-12-04T18:31:19.275Z,102046.59
2018-12-04T18:33:47.561Z,102049.88
2018-12-04T18:36:15.931Z,102059.30
2018-12-04T18:38:44.281Z,102062.81
2018-12-04T18:41:12.654Z,102061.84
2018-12-04T18:43:40.960Z,102067.27
2018-12-04T18:46:09.261Z,102073.20
2018-12-04T18:48:37.634Z,102069.33
2018-12-04T18:51:06.012Z,102070.89
2018-12-04T18:53:35.549Z,102071.59
2018-12-04T18:56:03.897Z,102071.80
2018-12-04T18:58:32.191Z,102075.95
2018-12-04T19:01:00.549Z,102080.47
2018-12-04T19:03:28.910Z,102087.30
2018-12-04T19:05:57.188Z,102092.16
2018-12-04T19:08:27.454Z,102100.66
2018-12-04T19:10:55.781Z,102095.27
2018-12-04T19:13:24.078Z,102104.15
2018-12-04T19:15:52.512Z,102104.92
2018-12-04T19:18:20.808Z,102108.34
2018-12-04T19:20:49.135Z,102103.17
2018-12-04T19:23:17.494Z,102105.45
2018-12-04T19:25:46.488Z,102104.69
2018-12-04T19:28:14.830Z,102120.52
2018-12-04T19:30:43.338Z,102120.10
2018-12-04T19:33:11.644Z,102120.52
2018-12-04T19:35:39.995Z,102113.41
2018-12-04T19:38:08.490Z,102118.06
2018-12-04T19:40:36.830Z,102124.28
2018-12-04T19:43:05.399Z,102126.77
2018-12-04T19:45:34.134Z,102122.55
2018-12-04T19:48:02.729Z,102131.08
2018-12-04T19:50:31.055Z,102131.22
2018-12-04T19:52:59.360Z,102136.59
2018-12-04T19:55:27.858Z,102144.46
2018-12-04T19:57:56.168Z,102147.36
2018-12-04T20:00:24.631Z,102151.27
2018-12-04T20:02:53.078Z,102148.91
2018-12-04T20:05:21.414Z,102148.91
2018-12-04T20:07:49.841Z,102153.02
2018-12-04T20:10:18.248Z,102161.71
2018-12-04T20:12:46.567Z,102162.68
2018-12-04T20:15:15.025Z,102169.02
2018-12-04T20:17:43.458Z,102175.72
2018-12-04T20:20:11.791Z,102172.00
2018-12-04T20:22:40.180Z,102172.36
2018-12-04T20:25:08.589Z,102178.09
2018-12-04T20:27:36.954Z,102184.06
2018-12-04T20:30:06.597Z,102189.69
2018-12-04T20:32:34.976Z,102192.30
2018-12-04T20:35:04.929Z,102198.34
2018-12-04T20:37:33.577Z,102198.92
2018-12-04T20:40:01.875Z,102202.58
2018-12-04T20:42:30.226Z,102202.33
2018-12-04T20:44:58.950Z,102206.30
2018-12-04T20:47:27.289Z,102207.94
2018-12-04T20:49:55.602Z,102210.46
2018-12-04T20:52:23.949Z,102210.48
2018-12-04T20:54:52.983Z,102207.38
2018-12-04T20:57:21.680Z,102214.84
2018-12-04T20:59:50.034Z,102216.63
2018-12-04T21:02:18.424Z,102227.41
2018-12-04T21:04:46.754Z,102235.37
2018-12-04T21:07:15.244Z,102240.61
2018-12-04T21:09:43.564Z,102240.81
2018-12-04T21:12:11.844Z,102244.86
2018-12-04T21:14:40.284Z,102248.31
2018-12-04T21:17:08.684Z,102254.64
2018-12-04T21:19:37.261Z,102258.42
2018-12-04T21:22:05.750Z,102261.88
2018-12-04T21:24:34.080Z,102260.81
2018-12-04T21:27:02.537Z,102255.44
2018-12-04T21:29:36.710Z,102253.13
2018-12-04T21:32:10.506Z,102253.91
2018-12-04T21:34:48.355Z,102251.59
2018-12-04T21:40:27.322Z,102261.97
2018-12-04T21:43:01.038Z,102253.72
2018-12-04T21:45:35.797Z,102254.48
2018-12-04T21:48:04.934Z,102260.33
2018-12-04T21:50:33.222Z,102264.45
2018-12-04T21:53:01.566Z,102258.89
2018-12-04T21:55:29.869Z,102253.99
2018-12-04T21:57:58.142Z,102261.09
2018-12-04T22:00:26.450Z,102266.58
2018-12-04T22:02:54.750Z,102272.53
2018-12-04T22:05:23.079Z,102270.98
2018-12-04T22:07:51.643Z,102276.84
2018-12-04T22:10:19.954Z,102278.09
2018-12-04T22:12:48.338Z,102282.61
2018-12-04T22:15:16.749Z,102290.09
2018-12-04T22:17:45.118Z,102298.44
2018-12-04T22:20:13.645Z,102302.46
2018-12-04T22:22:42.051Z,102304.98
2018-12-04T22:25:10.364Z,102313.44
2018-12-04T22:27:38.742Z,102310.75
2018-12-04T22:30:09.053Z,102315.16
2018-12-04T22:32:37.345Z,102310.16
2018-12-04T22:35:05.895Z,102309.30
2018-12-04T22:37:34.206Z,102314.01
2018-12-04T22:40:02.644Z,102316.41
2018-12-04T22:42:30.957Z,102317.08
2018-12-04T22:45:01.237Z,102315.06
2018-12-04T22:47:29.551Z,102319.58
2018-12-04T22:49:57.852Z,102316.31
2018-12-04T22:52:27.265Z,102316.70
2018-12-04T22:54:55.563Z,102320.25
2018-12-04T22:57:23.846Z,102326.78
2018-12-04T22:59:52.176Z,102326.11
2018-12-04T23:02:20.620Z,102322.27
2018-12-04T23:04:48.929Z,102324.94
2018-12-04T23:07:17.303Z,102325.14
2018-12-04T23:09:45.713Z,102325.53
2018-12-04T23:12:14.887Z,102326.10
2018-12-04T23:14:43.470Z,102321.89
2018-12-04T23:17:11.842Z,102329.77
2018-12-04T23:19:40.253Z,102327.45
2018-12-04T23:22:08.683Z,102325.15
2018-12-04T23:24:37.021Z,102324.19
2018-12-04T23:27:05.398Z,102332.83
2018-12-04T23:29:33.696Z,102326.87
2018-12-04T23:32:02.055Z,102331.09
2018-12-04T23:34:30.378Z,102335.22
2018-12-04T23:36:58.781Z,102338.02
2018-12-04T23:39:27.089Z,102336.66
2018-12-04T23:41:55.403Z,102344.13
2018-12-04T23:44:24.925Z,102348.44
2018-12-04T23:46:53.239Z,102350.16
2018-12-04T23:49:21.598Z,102349.45
2018-12-04T23:51:50.117Z,102354.84
2018-12-04T23:54:18.614Z,102357.11
2018-12-04T23:56:46.897Z,102351.15
2018-12-04T23:59:15.324Z,102351.92
